sensor_id;sensor_type;location;lat;lon;timestamp;P1;durP1;ratioP1;P2;durP2;ratioP2
24435;SDS011;12616;52.470;13.436;2022-07-26T00:00:15;14.03;;;12.63;;
24435;SDS011;12616;52.470;13.436;2022-07-26T00:02:44;12.87;;;10.70;;
24435;SDS011;12616;52.470;13.436;2022-07-26T00:05:11;13.17;;;11.77;;
24435;SDS011;12616;52.470;13.436;2022-07-26T00:07:38;14.63;;;13.03;;
24435;SDS011;12616;52.470;13.436;2022-07-26T00:10:05;14.67;;;13.27;;
24435;SDS011;12616;52.470;13.436;2022-07-26T00:12:32;16.87;;;13.83;;
24435;SDS011;12616;52.470;13.436;2022-07-26T00:14:59;15.40;;;13.70;;
24435;SDS011;12616;52.470;13.436;2022-07-26T00:17:27;14.60;;;13.07;;
24435;SDS011;12616;52.470;13.436;2022-07-26T00:19:54;14.77;;;12.57;;
24435;SDS011;12616;52.470;13.436;2022-07-26T00:22:21;15.20;;;13.47;;
24435;SDS011;12616;52.470;13.436;2022-07-26T00:25:00;12.80;;;11.50;;
24435;SDS011;12616;52.470;13.436;2022-07-26T00:27:27;13.90;;;12.50;;
24435;SDS011;12616;52.470;13.436;2022-07-26T00:29:54;12.83;;;11.60;;
24435;SDS011;12616;52.470;13.436;2022-07-26T00:32:21;12.70;;;11.50;;
24435;SDS011;12616;52.470;13.436;2022-07-26T00:34:49;14.10;;;12.70;;
24435;SDS011;12616;52.470;13.436;2022-07-26T00:37:16;11.97;;;10.73;;
24435;SDS011;12616;52.470;13.436;2022-07-26T00:39:44;13.20;;;11.77;;
24435;SDS011;12616;52.470;13.436;2022-07-26T00:42:10;12.77;;;11.57;;
24435;SDS011;12616;52.470;13.436;2022-07-26T00:44:38;12.80;;;11.63;;
24435;SDS011;12616;52.470;13.436;2022-07-26T00:47:05;16.40;;;12.30;;
24435;SDS011;12616;52.470;13.436;2022-07-26T00:49:32;18.20;;;13.17;;
24435;SDS011;12616;52.470;13.436;2022-07-26T00:52:00;14.50;;;13.00;;
24435;SDS011;12616;52.470;13.436;2022-07-26T00:54:27;17.60;;;14.00;;
24435;SDS011;12616;52.470;13.436;2022-07-26T00:56:54;15.77;;;12.70;;
24435;SDS011;12616;52.470;13.436;2022-07-26T00:59:21;13.13;;;11.83;;
24435;SDS011;12616;52.470;13.436;2022-07-26T01:01:48;14.90;;;13.17;;
24435;SDS011;12616;52.470;13.436;2022-07-26T01:04:14;14.87;;;13.10;;
24435;SDS011;12616;52.470;13.436;2022-07-26T01:06:41;13.70;;;12.40;;
24435;SDS011;12616;52.470;13.436;2022-07-26T01:09:09;12.47;;;11.17;;
24435;SDS011;12616;52.470;13.436;2022-07-26T01:11:36;13.57;;;12.30;;
24435;SDS011;12616;52.470;13.436;2022-07-26T01:14:03;14.27;;;12.77;;
24435;SDS011;12616;52.470;13.436;2022-07-26T01:16:29;15.07;;;12.70;;
24435;SDS011;12616;52.470;13.436;2022-07-26T01:18:56;15.90;;;13.00;;
24435;SDS011;12616;52.470;13.436;2022-07-26T01:21:28;12.63;;;11.33;;
24435;SDS011;12616;52.470;13.436;2022-07-26T01:23:55;15.93;;;12.03;;
24435;SDS011;12616;52.470;13.436;2022-07-26T01:26:21;13.30;;;11.90;;
24435;SDS011;12616;52.470;13.436;2022-07-26T01:28:48;18.00;;;11.87;;
24435;SDS011;12616;52.470;13.436;2022-07-26T01:31:15;12.23;;;10.30;;
24435;SDS011;12616;52.470;13.436;2022-07-26T01:33:42;11.73;;;10.53;;
24435;SDS011;12616;52.470;13.436;2022-07-26T01:36:09;10.70;;;9.47;;
24435;SDS011;12616;52.470;13.436;2022-07-26T01:38:38;12.30;;;8.50;;
24435;SDS011;12616;52.470;13.436;2022-07-26T01:41:05;10.33;;;9.20;;
24435;SDS011;12616;52.470;13.436;2022-07-26T01:43:32;17.10;;;10.13;;
24435;SDS011;12616;52.470;13.436;2022-07-26T01:45:59;11.87;;;10.53;;
24435;SDS011;12616;52.470;13.436;2022-07-26T01:48:25;11.23;;;9.93;;
24435;SDS011;12616;52.470;13.436;2022-07-26T01:50:52;12.60;;;10.80;;
24435;SDS011;12616;52.470;13.436;2022-07-26T01:53:19;14.80;;;12.00;;
24435;SDS011;12616;52.470;13.436;2022-07-26T01:55:47;19.47;;;17.63;;
24435;SDS011;12616;52.470;13.436;2022-07-26T01:58:14;20.93;;;18.73;;
24435;SDS011;12616;52.470;13.436;2022-07-26T02:00:40;23.60;;;19.97;;
24435;SDS011;12616;52.470;13.436;2022-07-26T02:03:07;21.53;;;18.73;;
24435;SDS011;12616;52.470;13.436;2022-07-26T02:05:34;18.83;;;16.83;;
24435;SDS011;12616;52.470;13.436;2022-07-26T02:08:00;15.97;;;14.23;;
24435;SDS011;12616;52.470;13.436;2022-07-26T02:10:27;17.03;;;14.17;;
24435;SDS011;12616;52.470;13.436;2022-07-26T02:13:16;15.37;;;13.67;;
24435;SDS011;12616;52.470;13.436;2022-07-26T02:15:43;14.13;;;12.63;;
24435;SDS011;12616;52.470;13.436;2022-07-26T02:18:09;13.10;;;11.80;;
24435;SDS011;12616;52.470;13.436;2022-07-26T02:20:36;15.60;;;12.57;;
24435;SDS011;12616;52.470;13.436;2022-07-26T02:23:03;13.33;;;11.90;;
24435;SDS011;12616;52.470;13.436;2022-07-26T02:25:30;13.10;;;11.90;;
24435;SDS011;12616;52.470;13.436;2022-07-26T02:27:56;16.70;;;13.63;;
24435;SDS011;12616;52.470;13.436;2022-07-26T02:30:26;11.93;;;10.60;;
24435;SDS011;12616;52.470;13.436;2022-07-26T02:32:53;12.60;;;11.30;;
24435;SDS011;12616;52.470;13.436;2022-07-26T02:35:20;12.50;;;10.97;;
24435;SDS011;12616;52.470;13.436;2022-07-26T02:37:46;12.83;;;10.47;;
24435;SDS011;12616;52.470;13.436;2022-07-26T02:40:13;11.57;;;10.47;;
24435;SDS011;12616;52.470;13.436;2022-07-26T02:42:40;15.57;;;11.47;;
24435;SDS011;12616;52.470;13.436;2022-07-26T02:45:07;12.53;;;10.27;;
24435;SDS011;12616;52.470;13.436;2022-07-26T02:47:37;14.40;;;10.97;;
24435;SDS011;12616;52.470;13.436;2022-07-26T02:50:10;12.10;;;9.93;;
24435;SDS011;12616;52.470;13.436;2022-07-26T02:52:37;14.07;;;12.77;;
24435;SDS011;12616;52.470;13.436;2022-07-26T02:55:04;12.50;;;11.20;;
24435;SDS011;12616;52.470;13.436;2022-07-26T02:57:32;11.43;;;10.33;;
24435;SDS011;12616;52.470;13.436;2022-07-26T02:59:58;11.57;;;10.47;;
24435;SDS011;12616;52.470;13.436;2022-07-26T03:02:25;12.93;;;11.73;;
24435;SDS011;12616;52.470;13.436;2022-07-26T03:04:53;14.50;;;12.03;;
24435;SDS011;12616;52.470;13.436;2022-07-26T03:07:20;15.53;;;11.40;;
24435;SDS011;12616;52.470;13.436;2022-07-26T03:09:46;13.70;;;12.37;;
24435;SDS011;12616;52.470;13.436;2022-07-26T03:12:13;13.40;;;12.10;;
24435;SDS011;12616;52.470;13.436;2022-07-26T03:14:40;13.53;;;12.30;;
24435;SDS011;12616;52.470;13.436;2022-07-26T03:17:06;13.03;;;11.80;;
24435;SDS011;12616;52.470;13.436;2022-07-26T03:19:33;13.93;;;12.50;;
24435;SDS011;12616;52.470;13.436;2022-07-26T03:22:01;13.47;;;11.23;;
24435;SDS011;12616;52.470;13.436;2022-07-26T03:24:28;12.93;;;11.20;;
24435;SDS011;12616;52.470;13.436;2022-07-26T03:26:55;14.10;;;11.93;;
24435;SDS011;12616;52.470;13.436;2022-07-26T03:29:22;12.10;;;10.50;;
24435;SDS011;12616;52.470;13.436;2022-07-26T03:31:48;13.10;;;11.80;;
24435;SDS011;12616;52.470;13.436;2022-07-26T03:34:15;12.53;;;11.23;;
24435;SDS011;12616;52.470;13.436;2022-07-26T03:36:42;12.83;;;10.13;;
24435;SDS011;12616;52.470;13.436;2022-07-26T03:39:10;13.90;;;10.63;;
24435;SDS011;12616;52.470;13.436;2022-07-26T03:41:37;9.93;;;8.90;;
24435;SDS011;12616;52.470;13.436;2022-07-26T03:44:04;9.50;;;8.60;;
24435;SDS011;12616;52.470;13.436;2022-07-26T03:46:31;10.60;;;9.17;;
24435;SDS011;12616;52.470;13.436;2022-07-26T03:48:58;10.43;;;8.50;;
24435;SDS011;12616;52.470;13.436;2022-07-26T03:51:24;8.70;;;7.80;;
24435;SDS011;12616;52.470;13.436;2022-07-26T03:53:51;11.23;;;8.70;;
24435;SDS011;12616;52.470;13.436;2022-07-26T03:56:19;8.10;;;7.40;;
24435;SDS011;12616;52.470;13.436;2022-07-26T03:58:56;8.37;;;7.57;;
24435;SDS011;12616;52.470;13.436;2022-07-26T04:01:24;8.87;;;7.57;;
24435;SDS011;12616;52.470;13.436;2022-07-26T04:03:51;10.80;;;8.17;;
24435;SDS011;12616;52.470;13.436;2022-07-26T04:06:18;8.30;;;7.50;;
24435;SDS011;12616;52.470;13.436;2022-07-26T04:08:45;7.87;;;7.10;;
24435;SDS011;12616;52.470;13.436;2022-07-26T04:11:12;10.03;;;6.77;;
24435;SDS011;12616;52.470;13.436;2022-07-26T04:13:40;8.70;;;7.60;;
24435;SDS011;12616;52.470;13.436;2022-07-26T04:16:07;8.73;;;6.67;;
24435;SDS011;12616;52.470;13.436;2022-07-26T04:18:33;8.30;;;7.47;;
24435;SDS011;12616;52.470;13.436;2022-07-26T04:21:00;8.40;;;7.60;;
24435;SDS011;12616;52.470;13.436;2022-07-26T04:23:27;9.27;;;7.27;;
24435;SDS011;12616;52.470;13.436;2022-07-26T04:25:54;8.63;;;7.80;;
24435;SDS011;12616;52.470;13.436;2022-07-26T04:28:21;7.50;;;6.23;;
24435;SDS011;12616;52.470;13.436;2022-07-26T04:30:52;6.47;;;5.90;;
24435;SDS011;12616;52.470;13.436;2022-07-26T04:33:18;12.77;;;7.10;;
24435;SDS011;12616;52.470;13.436;2022-07-26T04:35:45;7.03;;;6.33;;
24435;SDS011;12616;52.470;13.436;2022-07-26T04:38:12;7.43;;;6.73;;
24435;SDS011;12616;52.470;13.436;2022-07-26T04:40:38;6.60;;;5.90;;
24435;SDS011;12616;52.470;13.436;2022-07-26T04:43:05;6.90;;;6.20;;
24435;SDS011;12616;52.470;13.436;2022-07-26T04:45:32;8.53;;;6.30;;
24435;SDS011;12616;52.470;13.436;2022-07-26T04:48:00;6.90;;;5.30;;
24435;SDS011;12616;52.470;13.436;2022-07-26T04:50:27;13.13;;;6.53;;
24435;SDS011;12616;52.470;13.436;2022-07-26T04:52:54;9.07;;;6.87;;
24435;SDS011;12616;52.470;13.436;2022-07-26T04:55:21;11.60;;;6.40;;
24435;SDS011;12616;52.470;13.436;2022-07-26T04:57:48;7.60;;;6.73;;
24435;SDS011;12616;52.470;13.436;2022-07-26T05:00:17;7.17;;;6.10;;
24435;SDS011;12616;52.470;13.436;2022-07-26T05:02:47;6.43;;;5.73;;
24435;SDS011;12616;52.470;13.436;2022-07-26T05:05:16;6.83;;;6.13;;
24435;SDS011;12616;52.470;13.436;2022-07-26T05:07:43;6.67;;;5.90;;
24435;SDS011;12616;52.470;13.436;2022-07-26T05:10:11;9.50;;;6.40;;
24435;SDS011;12616;52.470;13.436;2022-07-26T05:12:38;9.63;;;6.97;;
24435;SDS011;12616;52.470;13.436;2022-07-26T05:15:06;9.60;;;7.40;;
24435;SDS011;12616;52.470;13.436;2022-07-26T05:17:35;11.27;;;7.27;;
24435;SDS011;12616;52.470;13.436;2022-07-26T05:20:03;11.30;;;6.20;;
24435;SDS011;12616;52.470;13.436;2022-07-26T05:22:32;6.87;;;6.17;;
24435;SDS011;12616;52.470;13.436;2022-07-26T05:24:58;8.70;;;6.23;;
24435;SDS011;12616;52.470;13.436;2022-07-26T05:27:25;6.20;;;5.50;;
24435;SDS011;12616;52.470;13.436;2022-07-26T05:29:52;6.67;;;4.70;;
24435;SDS011;12616;52.470;13.436;2022-07-26T05:32:20;6.87;;;6.00;;
24435;SDS011;12616;52.470;13.436;2022-07-26T05:34:46;11.23;;;5.63;;
24435;SDS011;12616;52.470;13.436;2022-07-26T05:37:13;9.20;;;5.90;;
24435;SDS011;12616;52.470;13.436;2022-07-26T05:39:41;7.53;;;6.67;;
24435;SDS011;12616;52.470;13.436;2022-07-26T05:42:08;6.57;;;6.00;;
24435;SDS011;12616;52.470;13.436;2022-07-26T05:44:35;7.77;;;5.93;;
24435;SDS011;12616;52.470;13.436;2022-07-26T05:47:01;7.20;;;6.50;;
24435;SDS011;12616;52.470;13.436;2022-07-26T05:49:28;11.13;;;6.40;;
24435;SDS011;12616;52.470;13.436;2022-07-26T05:51:55;8.03;;;5.23;;
24435;SDS011;12616;52.470;13.436;2022-07-26T05:54:22;6.80;;;5.83;;
24435;SDS011;12616;52.470;13.436;2022-07-26T05:56:50;6.40;;;5.67;;
24435;SDS011;12616;52.470;13.436;2022-07-26T05:59:16;6.67;;;5.80;;
24435;SDS011;12616;52.470;13.436;2022-07-26T06:01:43;9.90;;;4.97;;
24435;SDS011;12616;52.470;13.436;2022-07-26T06:04:10;7.60;;;5.70;;
24435;SDS011;12616;52.470;13.436;2022-07-26T06:06:37;13.20;;;5.73;;
24435;SDS011;12616;52.470;13.436;2022-07-26T06:09:04;8.63;;;5.33;;
24435;SDS011;12616;52.470;13.436;2022-07-26T06:11:31;6.73;;;5.23;;
24435;SDS011;12616;52.470;13.436;2022-07-26T06:13:59;4.50;;;4.10;;
24435;SDS011;12616;52.470;13.436;2022-07-26T06:16:26;6.47;;;4.70;;
24435;SDS011;12616;52.470;13.436;2022-07-26T06:18:52;10.30;;;4.00;;
24435;SDS011;12616;52.470;13.436;2022-07-26T06:21:19;9.60;;;5.60;;
24435;SDS011;12616;52.470;13.436;2022-07-26T06:23:46;6.17;;;4.60;;
24435;SDS011;12616;52.470;13.436;2022-07-26T06:26:13;8.90;;;4.47;;
24435;SDS011;12616;52.470;13.436;2022-07-26T06:28:40;5.30;;;4.07;;
24435;SDS011;12616;52.470;13.436;2022-07-26T06:31:09;7.00;;;4.40;;
24435;SDS011;12616;52.470;13.436;2022-07-26T06:33:36;6.50;;;4.07;;
24435;SDS011;12616;52.470;13.436;2022-07-26T06:36:02;5.47;;;4.10;;
24435;SDS011;12616;52.470;13.436;2022-07-26T06:38:30;8.53;;;4.00;;
24435;SDS011;12616;52.470;13.436;2022-07-26T06:40:57;5.93;;;3.47;;
24435;SDS011;12616;52.470;13.436;2022-07-26T06:43:24;7.40;;;3.53;;
24435;SDS011;12616;52.470;13.436;2022-07-26T06:45:51;6.07;;;4.13;;
24435;SDS011;12616;52.470;13.436;2022-07-26T06:48:19;5.43;;;3.93;;
24435;SDS011;12616;52.470;13.436;2022-07-26T06:50:46;8.73;;;4.50;;
24435;SDS011;12616;52.470;13.436;2022-07-26T06:53:12;4.70;;;3.63;;
24435;SDS011;12616;52.470;13.436;2022-07-26T06:55:39;5.33;;;3.27;;
24435;SDS011;12616;52.470;13.436;2022-07-26T06:58:06;8.33;;;4.03;;
24435;SDS011;12616;52.470;13.436;2022-07-26T07:00:33;3.87;;;2.80;;
24435;SDS011;12616;52.470;13.436;2022-07-26T07:03:00;3.20;;;2.90;;
24435;SDS011;12616;52.470;13.436;2022-07-26T07:05:28;6.80;;;3.43;;
24435;SDS011;12616;52.470;13.436;2022-07-26T07:07:55;5.83;;;3.33;;
24435;SDS011;12616;52.470;13.436;2022-07-26T07:10:22;6.33;;;3.60;;
24435;SDS011;12616;52.470;13.436;2022-07-26T07:12:48;6.77;;;3.30;;
24435;SDS011;12616;52.470;13.436;2022-07-26T07:15:15;5.90;;;3.30;;
24435;SDS011;12616;52.470;13.436;2022-07-26T07:17:42;3.20;;;2.90;;
24435;SDS011;12616;52.470;13.436;2022-07-26T07:20:09;9.20;;;3.93;;
24435;SDS011;12616;52.470;13.436;2022-07-26T07:22:39;7.37;;;3.90;;
24435;SDS011;12616;52.470;13.436;2022-07-26T07:25:06;4.00;;;3.00;;
24435;SDS011;12616;52.470;13.436;2022-07-26T07:27:33;7.70;;;4.47;;
24435;SDS011;12616;52.470;13.436;2022-07-26T07:30:00;4.77;;;3.53;;
24435;SDS011;12616;52.470;13.436;2022-07-26T07:32:27;4.27;;;3.00;;
24435;SDS011;12616;52.470;13.436;2022-07-26T07:34:54;4.60;;;2.83;;
24435;SDS011;12616;52.470;13.436;2022-07-26T07:37:20;6.00;;;3.10;;
24435;SDS011;12616;52.470;13.436;2022-07-26T07:39:49;4.93;;;2.67;;
24435;SDS011;12616;52.470;13.436;2022-07-26T07:42:15;6.23;;;3.17;;
24435;SDS011;12616;52.470;13.436;2022-07-26T07:44:42;2.83;;;2.57;;
24435;SDS011;12616;52.470;13.436;2022-07-26T07:47:09;5.80;;;2.83;;
24435;SDS011;12616;52.470;13.436;2022-07-26T07:49:36;5.23;;;2.97;;
24435;SDS011;12616;52.470;13.436;2022-07-26T07:52:03;6.57;;;2.67;;
24435;SDS011;12616;52.470;13.436;2022-07-26T07:54:30;8.53;;;3.60;;
24435;SDS011;12616;52.470;13.436;2022-07-26T07:56:58;7.37;;;2.90;;
24435;SDS011;12616;52.470;13.436;2022-07-26T07:59:25;2.80;;;2.30;;
24435;SDS011;12616;52.470;13.436;2022-07-26T08:01:52;2.87;;;2.30;;
24435;SDS011;12616;52.470;13.436;2022-07-26T08:04:19;3.83;;;2.33;;
24435;SDS011;12616;52.470;13.436;2022-07-26T08:06:46;3.17;;;2.80;;
24435;SDS011;12616;52.470;13.436;2022-07-26T08:09:13;5.70;;;2.50;;
24435;SDS011;12616;52.470;13.436;2022-07-26T08:11:39;4.57;;;2.80;;
24435;SDS011;12616;52.470;13.436;2022-07-26T08:14:07;7.00;;;2.67;;
24435;SDS011;12616;52.470;13.436;2022-07-26T08:16:34;5.10;;;2.80;;
24435;SDS011;12616;52.470;13.436;2022-07-26T08:19:01;3.87;;;3.50;;
24435;SDS011;12616;52.470;13.436;2022-07-26T08:21:28;2.90;;;2.60;;
24435;SDS011;12616;52.470;13.436;2022-07-26T08:23:55;3.33;;;2.30;;
24435;SDS011;12616;52.470;13.436;2022-07-26T08:26:22;5.20;;;2.60;;
24435;SDS011;12616;52.470;13.436;2022-07-26T08:28:49;3.50;;;2.70;;
24435;SDS011;12616;52.470;13.436;2022-07-26T08:31:17;3.93;;;2.43;;
24435;SDS011;12616;52.470;13.436;2022-07-26T08:33:45;6.90;;;3.00;;
24435;SDS011;12616;52.470;13.436;2022-07-26T08:36:11;2.50;;;2.17;;
24435;SDS011;12616;52.470;13.436;2022-07-26T08:38:39;4.60;;;2.57;;
24435;SDS011;12616;52.470;13.436;2022-07-26T08:41:05;7.63;;;2.67;;
24435;SDS011;12616;52.470;13.436;2022-07-26T08:43:32;5.17;;;2.20;;
24435;SDS011;12616;52.470;13.436;2022-07-26T08:45:59;2.63;;;2.20;;
24435;SDS011;12616;52.470;13.436;2022-07-26T08:48:28;4.67;;;2.50;;
24435;SDS011;12616;52.470;13.436;2022-07-26T08:50:56;2.80;;;2.50;;
24435;SDS011;12616;52.470;13.436;2022-07-26T08:53:23;3.10;;;1.80;;
24435;SDS011;12616;52.470;13.436;2022-07-26T08:55:53;3.00;;;2.50;;
24435;SDS011;12616;52.470;13.436;2022-07-26T08:58:21;2.70;;;2.07;;
24435;SDS011;12616;52.470;13.436;2022-07-26T09:00:50;2.97;;;2.20;;
24435;SDS011;12616;52.470;13.436;2022-07-26T09:03:33;3.10;;;2.30;;
24435;SDS011;12616;52.470;13.436;2022-07-26T09:06:14;3.13;;;2.20;;
24435;SDS011;12616;52.470;13.436;2022-07-26T09:08:42;2.30;;;2.10;;
24435;SDS011;12616;52.470;13.436;2022-07-26T09:11:24;3.67;;;2.13;;
24435;SDS011;12616;52.470;13.436;2022-07-26T09:13:56;2.20;;;2.00;;
24435;SDS011;12616;52.470;13.436;2022-07-26T09:16:23;2.87;;;2.40;;
24435;SDS011;12616;52.470;13.436;2022-07-26T09:18:52;3.53;;;2.30;;
24435;SDS011;12616;52.470;13.436;2022-07-26T09:21:26;2.87;;;2.00;;
24435;SDS011;12616;52.470;13.436;2022-07-26T09:23:53;3.70;;;1.70;;
24435;SDS011;12616;52.470;13.436;2022-07-26T09:26:20;4.00;;;2.37;;
24435;SDS011;12616;52.470;13.436;2022-07-26T09:28:52;3.53;;;2.00;;
24435;SDS011;12616;52.470;13.436;2022-07-26T09:31:28;3.03;;;2.10;;
24435;SDS011;12616;52.470;13.436;2022-07-26T09:33:56;2.20;;;2.00;;
24435;SDS011;12616;52.470;13.436;2022-07-26T09:36:24;2.27;;;2.00;;
24435;SDS011;12616;52.470;13.436;2022-07-26T09:38:52;3.10;;;1.73;;
24435;SDS011;12616;52.470;13.436;2022-07-26T09:41:21;4.43;;;2.00;;
24435;SDS011;12616;52.470;13.436;2022-07-26T09:43:50;6.53;;;2.20;;
24435;SDS011;12616;52.470;13.436;2022-07-26T09:46:18;5.53;;;1.90;;
24435;SDS011;12616;52.470;13.436;2022-07-26T09:48:45;4.20;;;2.07;;
24435;SDS011;12616;52.470;13.436;2022-07-26T09:51:14;2.40;;;1.87;;
24435;SDS011;12616;52.470;13.436;2022-07-26T09:53:41;5.63;;;1.93;;
24435;SDS011;12616;52.470;13.436;2022-07-26T09:56:10;2.27;;;2.07;;
24435;SDS011;12616;52.470;13.436;2022-07-26T09:58:37;6.80;;;2.43;;
24435;SDS011;12616;52.470;13.436;2022-07-26T10:01:04;3.70;;;2.17;;
24435;SDS011;12616;52.470;13.436;2022-07-26T10:03:32;2.00;;;1.90;;
24435;SDS011;12616;52.470;13.436;2022-07-26T10:06:00;2.87;;;2.20;;
24435;SDS011;12616;52.470;13.436;2022-07-26T10:08:29;3.37;;;2.07;;
24435;SDS011;12616;52.470;13.436;2022-07-26T10:10:59;6.13;;;2.00;;
24435;SDS011;12616;52.470;13.436;2022-07-26T10:13:28;2.27;;;2.00;;
24435;SDS011;12616;52.470;13.436;2022-07-26T10:15:55;4.90;;;2.03;;
24435;SDS011;12616;52.470;13.436;2022-07-26T10:21:16;5.23;;;1.80;;
24435;SDS011;12616;52.470;13.436;2022-07-26T10:23:45;4.27;;;2.00;;
24435;SDS011;12616;52.470;13.436;2022-07-26T10:29:17;3.17;;;2.73;;
24435;SDS011;12616;52.470;13.436;2022-07-26T10:31:47;5.63;;;1.90;;
24435;SDS011;12616;52.470;13.436;2022-07-26T10:34:28;4.40;;;1.90;;
24435;SDS011;12616;52.470;13.436;2022-07-26T10:36:56;3.87;;;2.60;;
24435;SDS011;12616;52.470;13.436;2022-07-26T10:39:25;2.30;;;1.90;;
24435;SDS011;12616;52.470;13.436;2022-07-26T10:41:56;3.27;;;2.07;;
24435;SDS011;12616;52.470;13.436;2022-07-26T10:44:25;3.43;;;1.80;;
24435;SDS011;12616;52.470;13.436;2022-07-26T10:47:02;5.07;;;2.50;;
24435;SDS011;12616;52.470;13.436;2022-07-26T10:49:40;2.27;;;1.93;;
24435;SDS011;12616;52.470;13.436;2022-07-26T10:52:09;2.67;;;2.10;;
24435;SDS011;12616;52.470;13.436;2022-07-26T10:57:36;3.00;;;2.03;;
24435;SDS011;12616;52.470;13.436;2022-07-26T11:00:11;2.60;;;2.50;;
24435;SDS011;12616;52.470;13.436;2022-07-26T11:02:41;3.20;;;1.93;;
24435;SDS011;12616;52.470;13.436;2022-07-26T11:05:09;2.27;;;2.07;;
24435;SDS011;12616;52.470;13.436;2022-07-26T11:07:50;4.23;;;2.40;;
24435;SDS011;12616;52.470;13.436;2022-07-26T11:10:24;2.73;;;2.13;;
24435;SDS011;12616;52.470;13.436;2022-07-26T11:15:42;2.17;;;1.97;;
24435;SDS011;12616;52.470;13.436;2022-07-26T11:18:14;3.10;;;2.47;;
24435;SDS011;12616;52.470;13.436;2022-07-26T11:20:44;5.90;;;2.47;;
24435;SDS011;12616;52.470;13.436;2022-07-26T11:23:18;5.23;;;2.33;;
24435;SDS011;12616;52.470;13.436;2022-07-26T11:26:00;9.77;;;4.93;;
24435;SDS011;12616;52.470;13.436;2022-07-26T11:31:27;3.43;;;2.40;;
24435;SDS011;12616;52.470;13.436;2022-07-26T11:34:00;4.80;;;2.00;;
24435;SDS011;12616;52.470;13.436;2022-07-26T11:36:34;2.47;;;2.27;;
24435;SDS011;12616;52.470;13.436;2022-07-26T11:39:03;2.93;;;2.27;;
24435;SDS011;12616;52.470;13.436;2022-07-26T11:41:33;6.80;;;2.60;;
24435;SDS011;12616;52.470;13.436;2022-07-26T11:44:00;4.00;;;2.80;;
24435;SDS011;12616;52.470;13.436;2022-07-26T11:46:32;5.17;;;2.80;;
24435;SDS011;12616;52.470;13.436;2022-07-26T11:49:01;7.90;;;2.27;;
24435;SDS011;12616;52.470;13.436;2022-07-26T11:51:30;5.03;;;2.60;;
24435;SDS011;12616;52.470;13.436;2022-07-26T11:54:01;4.77;;;2.63;;
24435;SDS011;12616;52.470;13.436;2022-07-26T11:56:28;3.40;;;2.30;;
24435;SDS011;12616;52.470;13.436;2022-07-26T11:58:57;4.13;;;2.60;;
24435;SDS011;12616;52.470;13.436;2022-07-26T12:01:25;4.10;;;2.40;;
24435;SDS011;12616;52.470;13.436;2022-07-26T12:03:53;3.40;;;2.90;;
24435;SDS011;12616;52.470;13.436;2022-07-26T12:06:21;3.40;;;2.87;;
24435;SDS011;12616;52.470;13.436;2022-07-26T12:08:50;5.77;;;3.90;;
24435;SDS011;12616;52.470;13.436;2022-07-26T12:11:18;9.43;;;4.63;;
24435;SDS011;12616;52.470;13.436;2022-07-26T12:13:53;6.07;;;4.53;;
24435;SDS011;12616;52.470;13.436;2022-07-26T12:16:42;6.70;;;5.73;;
24435;SDS011;12616;52.470;13.436;2022-07-26T12:19:21;6.30;;;3.33;;
24435;SDS011;12616;52.470;13.436;2022-07-26T12:21:50;5.80;;;3.00;;
24435;SDS011;12616;52.470;13.436;2022-07-26T12:24:36;3.83;;;3.17;;
24435;SDS011;12616;52.470;13.436;2022-07-26T12:27:08;7.33;;;3.43;;
24435;SDS011;12616;52.470;13.436;2022-07-26T12:29:37;8.37;;;3.60;;
24435;SDS011;12616;52.470;13.436;2022-07-26T12:32:07;9.83;;;4.30;;
24435;SDS011;12616;52.470;13.436;2022-07-26T12:34:36;5.43;;;4.63;;
24435;SDS011;12616;52.470;13.436;2022-07-26T12:37:07;16.57;;;5.63;;
24435;SDS011;12616;52.470;13.436;2022-07-26T12:39:35;9.30;;;5.97;;
24435;SDS011;12616;52.470;13.436;2022-07-26T12:42:21;6.57;;;5.30;;
24435;SDS011;12616;52.470;13.436;2022-07-26T12:44:49;6.33;;;5.70;;
24435;SDS011;12616;52.470;13.436;2022-07-26T12:47:18;6.53;;;5.30;;
24435;SDS011;12616;52.470;13.436;2022-07-26T12:49:45;6.53;;;5.90;;
24435;SDS011;12616;52.470;13.436;2022-07-26T12:52:13;8.47;;;4.70;;
24435;SDS011;12616;52.470;13.436;2022-07-26T12:54:41;5.87;;;5.33;;
24435;SDS011;12616;52.470;13.436;2022-07-26T12:57:09;7.10;;;5.20;;
24435;SDS011;12616;52.470;13.436;2022-07-26T12:59:36;6.47;;;5.87;;
24435;SDS011;12616;52.470;13.436;2022-07-26T13:02:03;6.10;;;5.70;;
24435;SDS011;12616;52.470;13.436;2022-07-26T13:04:31;5.77;;;5.17;;
24435;SDS011;12616;52.470;13.436;2022-07-26T13:06:58;5.60;;;4.50;;
24435;SDS011;12616;52.470;13.436;2022-07-26T13:09:25;6.30;;;5.70;;
24435;SDS011;12616;52.470;13.436;2022-07-26T13:11:51;5.63;;;5.00;;
24435;SDS011;12616;52.470;13.436;2022-07-26T13:14:18;4.50;;;4.10;;
24435;SDS011;12616;52.470;13.436;2022-07-26T13:16:45;4.03;;;3.70;;
24435;SDS011;12616;52.470;13.436;2022-07-26T13:19:12;4.00;;;3.70;;
24435;SDS011;12616;52.470;13.436;2022-07-26T13:21:40;3.23;;;3.03;;
24435;SDS011;12616;52.470;13.436;2022-07-26T13:24:07;5.57;;;3.63;;
24435;SDS011;12616;52.470;13.436;2022-07-26T13:26:34;5.57;;;3.70;;
24435;SDS011;12616;52.470;13.436;2022-07-26T13:29:01;2.53;;;2.33;;
24435;SDS011;12616;52.470;13.436;2022-07-26T13:31:28;3.83;;;3.43;;
24435;SDS011;12616;52.470;13.436;2022-07-26T13:33:54;3.43;;;2.90;;
24435;SDS011;12616;52.470;13.436;2022-07-26T13:36:21;4.10;;;3.70;;
24435;SDS011;12616;52.470;13.436;2022-07-26T13:38:49;3.20;;;3.00;;
24435;SDS011;12616;52.470;13.436;2022-07-26T13:41:16;3.57;;;3.27;;
24435;SDS011;12616;52.470;13.436;2022-07-26T13:43:43;3.30;;;3.03;;
24435;SDS011;12616;52.470;13.436;2022-07-26T13:46:10;3.00;;;2.70;;
24435;SDS011;12616;52.470;13.436;2022-07-26T13:48:36;5.33;;;4.00;;
24435;SDS011;12616;52.470;13.436;2022-07-26T13:51:03;4.07;;;2.70;;
24435;SDS011;12616;52.470;13.436;2022-07-26T13:53:30;3.80;;;3.50;;
24435;SDS011;12616;52.470;13.436;2022-07-26T13:55:58;2.90;;;2.70;;
24435;SDS011;12616;52.470;13.436;2022-07-26T13:58:25;5.23;;;4.63;;
24435;SDS011;12616;52.470;13.436;2022-07-26T14:00:52;5.50;;;4.07;;
24435;SDS011;12616;52.470;13.436;2022-07-26T14:03:18;4.40;;;4.00;;
24435;SDS011;12616;52.470;13.436;2022-07-26T14:05:45;3.10;;;2.80;;
24435;SDS011;12616;52.470;13.436;2022-07-26T14:08:12;3.90;;;3.60;;
24435;SDS011;12616;52.470;13.436;2022-07-26T14:10:39;3.50;;;3.20;;
24435;SDS011;12616;52.470;13.436;2022-07-26T14:13:07;3.70;;;3.40;;
24435;SDS011;12616;52.470;13.436;2022-07-26T14:15:34;3.20;;;3.00;;
24435;SDS011;12616;52.470;13.436;2022-07-26T14:18:01;3.63;;;3.30;;
24435;SDS011;12616;52.470;13.436;2022-07-26T14:20:28;3.27;;;2.83;;
24435;SDS011;12616;52.470;13.436;2022-07-26T14:22:55;3.63;;;3.10;;
24435;SDS011;12616;52.470;13.436;2022-07-26T14:25:22;6.77;;;3.40;;
24435;SDS011;12616;52.470;13.436;2022-07-26T14:27:50;3.57;;;2.90;;
24435;SDS011;12616;52.470;13.436;2022-07-26T14:30:19;3.77;;;3.47;;
24435;SDS011;12616;52.470;13.436;2022-07-26T14:32:46;3.53;;;2.77;;
24435;SDS011;12616;52.470;13.436;2022-07-26T14:35:13;2.87;;;2.67;;
24435;SDS011;12616;52.470;13.436;2022-07-26T14:37:41;4.93;;;4.43;;
24435;SDS011;12616;52.470;13.436;2022-07-26T14:40:08;5.27;;;3.67;;
24435;SDS011;12616;52.470;13.436;2022-07-26T14:42:37;3.53;;;3.23;;
24435;SDS011;12616;52.470;13.436;2022-07-26T14:45:04;3.93;;;3.07;;
24435;SDS011;12616;52.470;13.436;2022-07-26T14:47:33;5.53;;;3.47;;